createdAt,value
2022-08-24T00:02:57.609Z,4.10
2022-08-24T00:08:21.366Z,3.90
2022-08-24T00:13:44.684Z,3.53
2022-08-24T00:19:06.898Z,3.70
2022-08-24T00:24:29.663Z,4.05
2022-08-24T00:29:52.253Z,3.57
2022-08-24T00:35:18.382Z,3.50
2022-08-24T00:40:46.075Z,3.78
2022-08-24T00:46:30.929Z,3.87
2022-08-24T00:52:25.095Z,3.93
2022-08-24T00:57:56.231Z,4.00
2022-08-24T01:03:18.875Z,4.13
2022-08-24T01:08:41.725Z,4.00
2022-08-24T01:14:05.209Z,3.40
2022-08-24T01:19:44.065Z,3.70
2022-08-24T01:25:08.219Z,3.55
2022-08-24T01:30:36.037Z,3.97
2022-08-24T01:36:28.769Z,3.92
2022-08-24T01:41:52.220Z,4.63
2022-08-24T01:47:16.577Z,5.03
2022-08-24T01:53:03.828Z,4.90
2022-08-24T01:58:24.738Z,5.80
2022-08-24T02:03:51.758Z,6.28
2022-08-24T02:09:16.418Z,6.53
2022-08-24T02:14:39.135Z,7.28
2022-08-24T02:20:04.290Z,7.65
2022-08-24T02:25:30.586Z,8.88
2022-08-24T02:30:53.706Z,8.82
2022-08-24T02:36:26.029Z,9.50
2022-08-24T02:41:52.656Z,9.07
2022-08-24T02:47:16.252Z,8.95
2022-08-24T02:52:40.287Z,9.30
2022-08-24T02:58:02.976Z,9.73
2022-08-24T03:03:25.239Z,9.02
2022-08-24T03:08:49.322Z,10.88
2022-08-24T03:14:19.435Z,10.02
2022-08-24T03:19:42.642Z,9.43
2022-08-24T03:25:06.363Z,10.57
2022-08-24T03:30:29.441Z,9.07
2022-08-24T03:35:54.718Z,9.57
2022-08-24T03:41:18.042Z,10.18
2022-08-24T03:46:41.741Z,10.15
2022-08-24T03:52:05.436Z,10.85
2022-08-24T03:57:28.911Z,10.65
2022-08-24T04:02:51.750Z,10.45
2022-08-24T04:08:17.848Z,9.63
2022-08-24T04:13:40.944Z,10.15
2022-08-24T04:19:03.203Z,9.77
2022-08-24T04:24:26.488Z,10.00
2022-08-24T04:29:49.506Z,9.80
2022-08-24T04:35:12.072Z,10.00
2022-08-24T04:40:34.503Z,10.52
2022-08-24T04:45:59.390Z,9.90
2022-08-24T04:51:22.784Z,10.50
2022-08-24T04:56:45.356Z,9.77
2022-08-24T05:02:07.853Z,9.93
2022-08-24T05:07:31.180Z,9.50
2022-08-24T05:12:54.007Z,9.05
2022-08-24T05:18:17.110Z,9.77
2022-08-24T05:23:43.924Z,8.23
2022-08-24T05:29:08.802Z,8.90
2022-08-24T05:34:40.026Z,8.88
2022-08-24T05:40:09.486Z,9.25
2022-08-24T05:45:34.482Z,8.05
2022-08-24T05:50:58.216Z,8.73
2022-08-24T05:56:27.670Z,10.18
2022-08-24T06:01:54.071Z,11.20
2022-08-24T06:07:17.259Z,10.98
2022-08-24T06:12:46.423Z,11.57
2022-08-24T06:18:09.497Z,11.60
2022-08-24T06:23:32.538Z,11.95
2022-08-24T06:28:58.063Z,10.98
2022-08-24T06:34:20.956Z,10.27
2022-08-24T06:39:44.138Z,10.27
2022-08-24T06:45:06.892Z,11.57
2022-08-24T06:50:29.382Z,10.70
2022-08-24T06:55:58.111Z,11.05
2022-08-24T07:01:24.530Z,10.23
2022-08-24T07:06:47.409Z,10.43
2022-08-24T07:12:12.881Z,12.27
2022-08-24T07:17:35.438Z,11.50
2022-08-24T07:22:58.209Z,12.05
2022-08-24T07:28:27.677Z,11.95
2022-08-24T07:33:54.716Z,11.65
2022-08-24T07:39:17.338Z,11.43
2022-08-24T07:44:40.877Z,11.00
2022-08-24T07:50:04.316Z,11.85
2022-08-24T07:55:26.695Z,12.23
2022-08-24T08:00:50.097Z,10.77
2022-08-24T08:06:16.423Z,11.48
2022-08-24T08:11:40.323Z,10.68
2022-08-24T08:17:03.040Z,10.40
2022-08-24T08:22:44.239Z,11.52
2022-08-24T08:28:35.320Z,9.63
2022-08-24T08:33:58.970Z,10.18
2022-08-24T08:39:23.062Z,10.65
2022-08-24T08:45:07.839Z,9.18
2022-08-24T08:51:11.728Z,9.82
2022-08-24T08:56:59.204Z,10.25
2022-08-24T09:02:56.276Z,9.25
2022-08-24T09:14:56.640Z,11.18
2022-08-24T09:20:41.191Z,9.18
2022-08-24T09:26:19.288Z,10.38
2022-08-24T09:31:56.400Z,8.55
2022-08-24T09:41:32.554Z,10.18
2022-08-24T09:46:58.317Z,9.77
2022-08-24T09:52:45.847Z,9.27
2022-08-24T09:58:39.028Z,8.88
2022-08-24T10:04:08.512Z,10.02
2022-08-24T10:09:59.631Z,8.18
2022-08-24T10:16:03.332Z,9.05
2022-08-24T10:21:34.815Z,8.93
2022-08-24T10:27:03.548Z,8.95
2022-08-24T10:32:47.674Z,8.25
2022-08-24T10:39:07.388Z,7.78
2022-08-24T10:44:47.136Z,8.40
2022-08-24T10:50:24.968Z,7.50
2022-08-24T10:56:08.816Z,8.52
2022-08-24T11:01:34.618Z,7.50
2022-08-24T11:07:17.851Z,7.45
2022-08-24T11:12:43.389Z,7.57
2022-08-24T11:18:05.862Z,7.43
2022-08-24T11:23:37.183Z,7.10
2022-08-24T11:29:01.399Z,6.60
2022-08-24T11:34:37.529Z,6.35
2022-08-24T11:40:00.037Z,5.95
2022-08-24T11:45:35.356Z,6.18
2022-08-24T11:51:05.135Z,5.22
2022-08-24T11:56:43.771Z,5.28
2022-08-24T12:02:25.748Z,6.35
2022-08-24T12:08:16.990Z,5.50
2022-08-24T12:14:05.004Z,5.70
2022-08-24T12:19:53.094Z,6.10
2022-08-24T12:25:36.379Z,5.47
2022-08-24T12:31:06.912Z,6.22
2022-08-24T12:36:56.494Z,5.63
2022-08-24T12:42:34.327Z,5.72
2022-08-24T12:48:07.058Z,6.07
2022-08-24T12:53:38.776Z,5.60
2022-08-24T12:59:25.982Z,5.30
2022-08-24T13:04:51.327Z,4.88
2022-08-24T13:10:37.830Z,4.95
2022-08-24T13:16:03.057Z,5.10
2022-08-24T13:21:39.131Z,4.30
2022-08-24T13:27:13.922Z,4.97
2022-08-24T13:32:42.552Z,4.50
2022-08-24T13:38:23.961Z,5.15
2022-08-24T13:43:58.111Z,4.93
2022-08-24T13:49:36.074Z,5.25
2022-08-24T13:55:00.904Z,4.72
2022-08-24T14:00:45.655Z,5.10
2022-08-24T14:06:47.062Z,5.53
2022-08-24T14:12:32.143Z,7.53
2022-08-24T14:18:03.869Z,6.60
2022-08-24T14:23:29.010Z,5.32
2022-08-24T14:28:52.185Z,4.32
2022-08-24T14:34:25.116Z,4.78
2022-08-24T14:39:55.275Z,3.92
2022-08-24T14:45:47.661Z,4.40
2022-08-24T14:51:27.270Z,3.85
2022-08-24T14:57:12.470Z,3.92
2022-08-24T15:02:43.928Z,4.45
2022-08-24T15:08:11.552Z,4.60
2022-08-24T15:13:37.131Z,4.30
2022-08-24T15:18:59.421Z,4.25
2022-08-24T15:24:57.603Z,4.32
2022-08-24T15:30:32.750Z,3.92
2022-08-24T15:36:15.555Z,4.63
2022-08-24T15:41:46.884Z,4.50
2022-08-24T15:47:15.180Z,4.18
2022-08-24T15:52:56.015Z,4.20
2022-08-24T15:58:32.275Z,4.93
2022-08-24T16:03:56.182Z,4.28
2022-08-24T16:09:18.671Z,3.90
2022-08-24T16:14:47.284Z,4.28
2022-08-24T16:20:30.031Z,4.30
2022-08-24T16:26:21.600Z,4.55
2022-08-24T16:31:51.882Z,4.85
2022-08-24T16:37:20.497Z,4.10
2022-08-24T16:42:42.990Z,5.20
2022-08-24T16:48:05.611Z,5.03
2022-08-24T16:53:28.674Z,4.95
2022-08-24T16:58:51.525Z,5.10
2022-08-24T17:04:14.318Z,4.93
2022-08-24T17:09:42.538Z,4.72
2022-08-24T17:15:07.098Z,4.75
2022-08-24T17:20:31.031Z,4.43
2022-08-24T17:25:54.027Z,4.45
2022-08-24T17:31:16.995Z,4.88
2022-08-24T17:36:41.506Z,4.78
2022-08-24T17:42:16.670Z,4.93
2022-08-24T17:47:49.345Z,4.50
2022-08-24T17:53:12.070Z,4.10
2022-08-24T17:58:58.433Z,4.78
2022-08-24T18:04:22.607Z,4.65
2022-08-24T18:09:49.477Z,4.68
2022-08-24T18:15:12.253Z,5.13
2022-08-24T18:20:37.993Z,4.50
2022-08-24T18:26:00.677Z,5.05
2022-08-24T18:31:25.594Z,5.18
2022-08-24T18:36:48.296Z,4.80
2022-08-24T18:42:12.026Z,5.57
2022-08-24T18:47:34.389Z,4.82
2022-08-24T18:53:00.403Z,4.55
2022-08-24T18:58:24.164Z,4.97
2022-08-24T19:03:47.728Z,4.57
2022-08-24T19:09:10.550Z,4.80
2022-08-24T19:14:35.629Z,4.78
2022-08-24T19:19:58.380Z,5.53
2022-08-24T19:25:27.457Z,4.97
2022-08-24T19:30:50.079Z,4.97
2022-08-24T19:36:14.009Z,5.00
2022-08-24T19:41:44.028Z,5.18
2022-08-24T19:47:09.526Z,5.57
2022-08-24T19:52:32.961Z,5.28
2022-08-24T19:58:03.508Z,5.95
2022-08-24T20:03:25.683Z,5.20
2022-08-24T20:08:48.842Z,5.78
2022-08-24T20:14:11.395Z,5.05
2022-08-24T20:19:37.647Z,5.13
2022-08-24T20:25:00.014Z,4.95
2022-08-24T20:30:23.436Z,5.72
2022-08-24T20:35:45.886Z,5.28
2022-08-24T20:41:08.289Z,5.32
2022-08-24T20:46:32.043Z,5.78
2022-08-24T20:51:54.534Z,5.25
2022-08-24T20:57:19.594Z,5.25
2022-08-24T21:02:41.983Z,5.20
2022-08-24T21:08:05.611Z,5.43
2022-08-24T21:13:28.409Z,5.00
2022-08-24T21:18:51.068Z,5.05
2022-08-24T21:24:13.971Z,5.03
2022-08-24T21:29:36.165Z,5.10
2022-08-24T21:34:58.872Z,6.30
2022-08-24T21:40:22.008Z,5.10
2022-08-24T21:45:44.821Z,5.07
2022-08-24T21:51:07.480Z,5.15
2022-08-24T21:56:32.475Z,4.90
2022-08-24T22:01:54.652Z,5.05
2022-08-24T22:07:17.058Z,4.90
2022-08-24T22:12:41.167Z,5.07
2022-08-24T22:18:04.626Z,4.70
2022-08-24T22:23:27.044Z,5.10
2022-08-24T22:28:49.249Z,4.68
2022-08-24T22:34:19.626Z,5.60
2022-08-24T22:39:43.923Z,4.90
2022-08-24T22:45:06.735Z,4.88
2022-08-24T22:50:32.414Z,5.05
2022-08-24T22:55:54.973Z,4.88
2022-08-24T23:01:29.892Z,5.18
2022-08-24T23:06:54.031Z,4.93
2022-08-24T23:12:21.768Z,5.15
2022-08-24T23:17:43.862Z,5.20
2022-08-24T23:23:06.433Z,5.68
2022-08-24T23:28:29.920Z,5.28
2022-08-24T23:33:53.250Z,5.20
2022-08-24T23:39:15.907Z,4.78
2022-08-24T23:44:39.414Z,5.28
2022-08-24T23:50:02.068Z,5.38
2022-08-24T23:55:29.281Z,5.07
